createdAt,value
2022-11-05T00:01:55.236Z,16.87
2022-11-05T00:05:16.648Z,16.15
2022-11-05T00:08:38.143Z,15.80
2022-11-05T00:11:59.600Z,14.48
2022-11-05T00:15:21.262Z,14.93
2022-11-05T00:18:24.099Z,15.15
2022-11-05T00:21:45.116Z,12.75
2022-11-05T00:25:06.332Z,12.52
2022-11-05T00:28:09.011Z,11.68
2022-11-05T00:31:14.028Z,10.18
2022-11-05T00:34:16.749Z,8.15
2022-11-05T00:37:19.451Z,7.87
2022-11-05T00:40:22.161Z,8.18
2022-11-05T00:43:43.915Z,8.23
2022-11-05T00:46:46.610Z,7.05
2022-11-05T00:49:49.310Z,7.32
2022-11-05T00:52:57.172Z,6.05
2022-11-05T00:56:00.676Z,5.30
2022-11-05T01:02:06.046Z,4.75
2022-11-05T01:05:09.219Z,5.65
2022-11-05T01:08:13.052Z,5.15
2022-11-05T01:11:33.577Z,5.00
2022-11-05T01:14:36.691Z,4.90
2022-11-05T01:17:39.417Z,5.05
2022-11-05T01:20:42.609Z,5.10
2022-11-05T01:23:45.923Z,5.22
2022-11-05T01:29:51.257Z,5.60
2022-11-05T01:32:54.068Z,4.47
2022-11-05T01:35:56.834Z,4.93
2022-11-05T01:38:59.552Z,5.30
2022-11-05T01:42:02.660Z,5.28
2022-11-05T01:45:15.278Z,4.82
2022-11-05T01:48:32.583Z,5.47
2022-11-05T01:51:35.599Z,5.12
2022-11-05T01:54:39.909Z,4.87
2022-11-05T01:57:42.681Z,4.47
2022-11-05T02:00:45.473Z,5.07
2022-11-05T02:03:50.553Z,5.00
2022-11-05T02:06:54.284Z,4.62
2022-11-05T02:10:08.843Z,5.20
2022-11-05T02:13:12.135Z,4.22
2022-11-05T02:16:28.086Z,4.03
2022-11-05T02:20:10.354Z,4.60
2022-11-05T02:23:30.833Z,4.15
2022-11-05T02:27:04.586Z,4.15
2022-11-05T02:30:26.029Z,4.70
2022-11-05T02:33:56.664Z,4.53
2022-11-05T02:37:08.078Z,3.80
2022-11-05T02:40:16.850Z,3.97
2022-11-05T02:43:35.985Z,4.53
2022-11-05T02:47:04.796Z,3.60
2022-11-05T02:50:16.446Z,4.50
2022-11-05T02:53:31.295Z,4.82
2022-11-05T02:56:39.371Z,3.58
2022-11-05T02:59:42.757Z,3.37
2022-11-05T03:02:45.345Z,3.67
2022-11-05T03:09:43.256Z,3.12
2022-11-05T03:13:09.508Z,3.70
2022-11-05T03:16:21.303Z,3.15
2022-11-05T03:19:36.820Z,4.43
2022-11-05T03:22:46.786Z,3.78
2022-11-05T03:25:55.681Z,3.50
2022-11-05T03:29:08.642Z,3.90
2022-11-05T03:32:13.661Z,3.42
2022-11-05T03:35:34.394Z,4.43
2022-11-05T03:38:41.823Z,3.00
2022-11-05T03:41:49.208Z,3.00
2022-11-05T03:44:57.100Z,2.95
2022-11-05T03:48:01.830Z,2.95
2022-11-05T03:51:04.866Z,2.78
2022-11-05T03:54:07.981Z,2.60
2022-11-05T03:57:18.496Z,3.10
2022-11-05T04:00:22.510Z,3.17
2022-11-05T04:03:25.562Z,3.42
2022-11-05T04:06:46.609Z,4.00
2022-11-05T04:10:07.975Z,3.25
2022-11-05T04:13:26.478Z,3.45
2022-11-05T04:16:48.164Z,3.78
2022-11-05T04:20:09.627Z,3.50
2022-11-05T04:23:31.133Z,3.55
2022-11-05T04:26:34.610Z,3.70
2022-11-05T04:29:56.019Z,3.83
2022-11-05T04:33:04.294Z,4.25
2022-11-05T04:36:07.679Z,4.35
2022-11-05T04:39:10.199Z,4.40
2022-11-05T04:42:13.213Z,4.37
2022-11-05T04:45:15.781Z,5.40
2022-11-05T04:48:18.785Z,4.47
2022-11-05T04:51:21.207Z,5.00
2022-11-05T04:54:24.324Z,4.90
2022-11-05T04:57:26.749Z,6.63
2022-11-05T05:00:29.854Z,5.20
2022-11-05T05:03:32.380Z,5.43
2022-11-05T05:06:35.379Z,5.57
2022-11-05T05:09:37.896Z,5.40
2022-11-05T05:12:40.962Z,5.57
2022-11-05T05:15:43.389Z,5.20
2022-11-05T05:18:46.721Z,4.78
2022-11-05T05:21:49.551Z,4.97
2022-11-05T05:27:59.117Z,7.97
2022-11-05T05:31:02.218Z,6.03
2022-11-05T05:34:05.532Z,6.07
2022-11-05T05:37:08.596Z,5.87
2022-11-05T05:40:11.890Z,5.80
2022-11-05T05:43:15.012Z,5.72
2022-11-05T05:46:19.038Z,6.20
2022-11-05T05:49:22.066Z,5.40
2022-11-05T05:52:24.539Z,5.70
2022-11-05T05:55:27.665Z,5.95
2022-11-05T05:58:36.075Z,6.40
2022-11-05T06:01:39.611Z,5.60
2022-11-05T06:04:43.097Z,5.80
2022-11-05T06:07:45.902Z,5.80
2022-11-05T06:10:52.084Z,5.10
2022-11-05T06:13:55.262Z,5.00
2022-11-05T06:16:57.968Z,5.50
2022-11-05T06:20:00.755Z,5.55
2022-11-05T06:23:03.514Z,5.22
2022-11-05T06:26:09.482Z,5.10
2022-11-05T06:29:12.414Z,5.10
2022-11-05T06:32:15.075Z,4.85
2022-11-05T06:35:18.003Z,5.53
2022-11-05T06:38:21.173Z,4.75
2022-11-05T06:44:26.651Z,4.85
2022-11-05T06:47:29.420Z,4.75
2022-11-05T06:50:32.164Z,5.25
2022-11-05T06:53:35.449Z,4.45
2022-11-05T06:56:38.158Z,5.97
2022-11-05T06:59:41.369Z,4.43
2022-11-05T07:02:44.699Z,4.90
2022-11-05T07:05:49.507Z,4.93
2022-11-05T07:08:52.206Z,4.50
2022-11-05T07:11:57.232Z,4.62
2022-11-05T07:15:00.062Z,5.25
2022-11-05T07:18:02.819Z,5.85
2022-11-05T07:21:05.794Z,5.00
2022-11-05T07:24:08.966Z,14.70
2022-11-05T07:27:11.746Z,9.95
2022-11-05T07:30:14.635Z,5.37
2022-11-05T07:33:17.823Z,6.05
2022-11-05T07:36:20.617Z,20.58
2022-11-05T07:39:23.483Z,5.00
2022-11-05T07:42:26.261Z,4.80
2022-11-05T07:45:30.893Z,3.70
2022-11-05T07:48:33.787Z,4.82
2022-11-05T07:51:36.515Z,3.90
2022-11-05T07:54:39.231Z,4.05
2022-11-05T07:57:43.642Z,9.32
2022-11-05T08:00:46.542Z,6.62
2022-11-05T08:06:52.013Z,3.50
2022-11-05T08:09:55.115Z,3.20
2022-11-05T08:12:58.861Z,3.17
2022-11-05T08:16:02.282Z,3.00
2022-11-05T08:19:04.866Z,3.40
2022-11-05T08:22:09.968Z,3.37
2022-11-05T08:25:13.223Z,4.33
2022-11-05T08:28:16.270Z,2.95
2022-11-05T08:31:18.698Z,2.90
2022-11-05T08:34:21.865Z,3.80
2022-11-05T08:37:24.357Z,3.70
2022-11-05T08:40:27.542Z,3.37
2022-11-05T08:43:30.033Z,4.32
2022-11-05T08:46:40.377Z,4.37
2022-11-05T08:49:43.991Z,4.47
2022-11-05T08:52:47.010Z,4.37
2022-11-05T08:55:51.425Z,9.40
2022-11-05T08:58:54.406Z,5.60
2022-11-05T09:01:57.193Z,5.25
2022-11-05T09:05:01.154Z,3.55
2022-11-05T09:08:11.817Z,3.33
2022-11-05T09:11:15.024Z,3.72
2022-11-05T09:14:17.546Z,3.53
2022-11-05T09:20:24.021Z,3.10
2022-11-05T09:26:29.362Z,3.60
2022-11-05T09:29:32.474Z,4.50
2022-11-05T09:32:35.039Z,4.33
2022-11-05T09:35:40.116Z,3.53
2022-11-05T09:38:42.901Z,3.75
2022-11-05T09:41:46.996Z,3.78
2022-11-05T09:44:52.023Z,3.95
2022-11-05T09:48:14.999Z,3.40
2022-11-05T09:51:23.656Z,4.30
2022-11-05T09:54:31.728Z,5.47
2022-11-05T09:57:54.763Z,4.47
2022-11-05T10:00:58.616Z,4.05
2022-11-05T10:04:07.982Z,3.72
2022-11-05T10:07:16.392Z,3.25
2022-11-05T10:11:07.522Z,4.35
2022-11-05T10:14:32.052Z,3.80
2022-11-05T10:17:39.229Z,3.55
2022-11-05T10:20:43.071Z,3.95
2022-11-05T10:23:47.437Z,3.70
2022-11-05T10:26:52.897Z,4.43
2022-11-05T10:29:55.819Z,3.42
2022-11-05T10:33:02.379Z,8.07
2022-11-05T10:36:09.623Z,10.32
2022-11-05T10:39:15.624Z,5.15
2022-11-05T10:42:43.330Z,3.92
2022-11-05T10:46:18.090Z,3.95
2022-11-05T10:49:39.594Z,3.95
2022-11-05T10:52:51.450Z,4.70
2022-11-05T10:55:54.655Z,4.32
2022-11-05T10:59:00.005Z,4.40
2022-11-05T11:02:27.061Z,3.78
2022-11-05T11:05:36.871Z,4.65
2022-11-05T11:08:43.422Z,4.20
2022-11-05T11:11:46.264Z,4.35
2022-11-05T11:15:14.390Z,4.65
2022-11-05T11:18:34.555Z,4.22
2022-11-05T11:21:41.706Z,3.33
2022-11-05T11:24:48.088Z,4.20
2022-11-05T11:27:51.651Z,3.97
2022-11-05T11:31:02.585Z,4.53
2022-11-05T11:34:26.763Z,4.78
2022-11-05T11:37:42.127Z,6.00
2022-11-05T11:43:48.568Z,4.03
2022-11-05T11:46:54.215Z,4.68
2022-11-05T11:49:59.660Z,4.07
2022-11-05T11:53:20.767Z,3.90
2022-11-05T11:56:23.585Z,4.45
2022-11-05T12:03:07.175Z,7.90
2022-11-05T12:06:29.947Z,5.95
2022-11-05T12:09:41.510Z,4.82
2022-11-05T12:13:20.483Z,4.47
2022-11-05T12:16:42.103Z,4.22
2022-11-05T12:20:02.125Z,4.50
2022-11-05T12:23:23.714Z,4.20
2022-11-05T12:26:44.729Z,3.47
2022-11-05T12:30:07.651Z,3.47
2022-11-05T12:33:21.427Z,3.37
2022-11-05T12:36:55.559Z,3.05
2022-11-05T12:40:22.804Z,3.72
2022-11-05T12:43:43.932Z,2.70
2022-11-05T12:47:11.375Z,5.68
2022-11-05T12:50:41.795Z,10.68
2022-11-05T12:53:56.520Z,5.62
2022-11-05T12:57:03.646Z,3.90
2022-11-05T13:00:21.849Z,3.50
2022-11-05T13:03:31.069Z,3.75
2022-11-05T13:06:49.789Z,3.10
2022-11-05T13:09:59.419Z,3.00
2022-11-05T13:13:11.198Z,3.28
2022-11-05T13:16:24.378Z,3.45
2022-11-05T13:19:33.513Z,5.32
2022-11-05T13:22:44.583Z,5.45
2022-11-05T13:25:59.486Z,4.45
2022-11-05T13:29:07.519Z,3.92
2022-11-05T13:32:31.302Z,4.00
2022-11-05T13:36:18.938Z,3.40
2022-11-05T13:39:27.781Z,3.50
2022-11-05T13:42:52.255Z,3.37
2022-11-05T13:45:54.938Z,4.03
2022-11-05T13:49:28.132Z,3.72
2022-11-05T13:52:54.545Z,6.75
2022-11-05T13:56:18.131Z,3.83
2022-11-05T14:02:45.429Z,2.72
2022-11-05T14:06:02.301Z,4.97
2022-11-05T14:09:10.237Z,3.85
2022-11-05T14:12:35.279Z,3.60
2022-11-05T14:15:38.134Z,3.67
2022-11-05T14:18:46.633Z,2.70
2022-11-05T14:21:59.127Z,3.08
2022-11-05T14:25:20.952Z,2.93
2022-11-05T14:28:36.360Z,3.45
2022-11-05T14:35:17.365Z,4.40
2022-11-05T14:38:26.053Z,5.20
2022-11-05T14:41:28.940Z,2.85
2022-11-05T14:44:35.060Z,3.03
2022-11-05T14:47:44.457Z,3.33
2022-11-05T14:50:49.211Z,2.60
2022-11-05T14:54:27.502Z,3.00
2022-11-05T14:57:42.482Z,2.87
2022-11-05T15:00:47.236Z,3.00
2022-11-05T15:04:26.144Z,5.95
2022-11-05T15:07:37.630Z,6.05
2022-11-05T15:10:41.870Z,4.43
2022-11-05T15:13:53.887Z,3.10
2022-11-05T15:17:04.004Z,4.57
2022-11-05T15:20:06.714Z,2.95
2022-11-05T15:23:16.885Z,3.22
2022-11-05T15:26:52.466Z,5.35
2022-11-05T15:29:55.308Z,4.20
2022-11-05T15:33:27.920Z,4.78
2022-11-05T15:36:31.541Z,3.55
2022-11-05T15:39:40.992Z,3.58
2022-11-05T15:42:43.752Z,3.75
2022-11-05T15:45:59.574Z,3.80
2022-11-05T15:49:07.100Z,6.50
2022-11-05T15:52:15.640Z,4.18
2022-11-05T15:55:24.673Z,3.60
2022-11-05T15:58:28.327Z,3.70
2022-11-05T16:01:46.897Z,3.70
2022-11-05T16:04:51.257Z,4.00
2022-11-05T16:07:54.119Z,3.37
2022-11-05T16:11:01.087Z,3.62
2022-11-05T16:14:16.212Z,3.67
2022-11-05T16:17:22.755Z,3.78
2022-11-05T16:20:28.345Z,3.22
2022-11-05T16:23:49.699Z,3.62
2022-11-05T16:27:02.633Z,8.30
2022-11-05T16:30:06.401Z,5.53
2022-11-05T16:33:13.591Z,4.10
2022-11-05T16:36:17.233Z,8.68
2022-11-05T16:39:19.997Z,6.50
2022-11-05T16:42:23.077Z,4.20
2022-11-05T16:45:25.655Z,3.78
2022-11-05T16:48:29.250Z,3.95
2022-11-05T16:51:31.858Z,3.80
2022-11-05T16:54:34.941Z,3.83
2022-11-05T16:57:37.503Z,6.35
2022-11-05T17:00:41.172Z,4.40
2022-11-05T17:03:45.086Z,6.47
2022-11-05T17:06:49.931Z,4.82
2022-11-05T17:09:52.488Z,4.10
2022-11-05T17:12:55.879Z,4.70
2022-11-05T17:15:58.447Z,4.80
2022-11-05T17:19:01.470Z,4.50
2022-11-05T17:22:04.343Z,4.32
2022-11-05T17:25:07.745Z,4.12
2022-11-05T17:28:11.229Z,5.00
2022-11-05T17:31:15.492Z,6.03
2022-11-05T17:34:17.929Z,5.10
2022-11-05T17:37:23.143Z,4.82
2022-11-05T17:40:25.669Z,4.30
2022-11-05T17:43:28.767Z,4.40
2022-11-05T17:46:31.631Z,4.90
2022-11-05T17:49:34.638Z,9.93
2022-11-05T17:52:37.214Z,5.13
2022-11-05T17:58:47.152Z,5.45
2022-11-05T18:01:50.309Z,4.87
2022-11-05T18:04:53.223Z,4.50
2022-11-05T18:07:55.939Z,5.05
2022-11-05T18:10:58.926Z,5.82
2022-11-05T18:14:02.252Z,4.82
2022-11-05T18:20:14.206Z,4.40
2022-11-05T18:23:21.302Z,4.07
2022-11-05T18:26:24.037Z,4.22
2022-11-05T18:29:26.850Z,3.62
2022-11-05T18:32:30.014Z,3.33
2022-11-05T18:35:32.993Z,3.03
2022-11-05T18:38:35.692Z,3.05
2022-11-05T18:41:39.008Z,3.15
2022-11-05T18:47:44.564Z,5.25
2022-11-05T18:50:47.299Z,4.20
2022-11-05T18:53:50.084Z,4.32
2022-11-05T18:56:52.957Z,3.70
2022-11-05T18:59:56.517Z,3.95
2022-11-05T19:02:59.394Z,4.62
2022-11-05T19:06:04.368Z,3.65
2022-11-05T19:09:09.795Z,4.22
2022-11-05T19:12:12.773Z,4.28
2022-11-05T19:15:15.664Z,4.12
2022-11-05T19:18:18.422Z,4.90
2022-11-05T19:21:23.052Z,5.40
2022-11-05T19:24:25.775Z,3.58
2022-11-05T19:27:28.523Z,3.30
2022-11-05T19:30:31.298Z,3.62
2022-11-05T19:33:34.022Z,5.57
2022-11-05T19:36:37.275Z,4.30
2022-11-05T19:45:47.038Z,6.30
2022-11-05T19:51:52.795Z,5.30
2022-11-05T19:54:55.523Z,4.30
2022-11-05T19:57:58.249Z,3.87
2022-11-05T20:01:01.966Z,5.57
2022-11-05T20:04:05.868Z,4.05
2022-11-05T20:10:11.187Z,5.22
2022-11-05T20:13:19.691Z,4.30
2022-11-05T20:16:29.545Z,3.72
2022-11-05T20:19:32.158Z,4.32
2022-11-05T20:22:35.248Z,3.40
2022-11-05T20:25:37.844Z,3.15
2022-11-05T20:28:43.717Z,4.37
2022-11-05T20:31:46.286Z,5.35
2022-11-05T20:34:49.287Z,4.35
2022-11-05T20:37:54.209Z,3.20
2022-11-05T20:40:57.580Z,3.97
2022-11-05T20:44:00.115Z,11.88
2022-11-05T20:47:03.188Z,3.70
2022-11-05T20:50:06.412Z,3.63
2022-11-05T20:53:13.109Z,4.53
2022-11-05T20:56:26.285Z,3.80
2022-11-05T20:59:29.356Z,4.03
2022-11-05T21:02:31.940Z,4.27
2022-11-05T21:05:35.756Z,4.10
2022-11-05T21:11:59.896Z,4.23
2022-11-05T21:15:02.437Z,3.80
2022-11-05T21:18:05.538Z,3.55
2022-11-05T21:21:12.862Z,3.53
2022-11-05T21:24:15.910Z,3.97
2022-11-05T21:27:18.502Z,2.97
2022-11-05T21:30:21.636Z,2.83
2022-11-05T21:33:24.092Z,3.28
2022-11-05T21:36:27.070Z,4.47
2022-11-05T21:39:29.849Z,3.67
2022-11-05T21:45:35.157Z,3.47
2022-11-05T21:48:38.245Z,3.85
2022-11-05T21:51:59.120Z,3.65
2022-11-05T21:55:21.055Z,7.50
2022-11-05T21:58:42.497Z,4.07
2022-11-05T22:01:45.868Z,3.90
2022-11-05T22:04:54.771Z,4.03
2022-11-05T22:07:57.749Z,3.65
2022-11-05T22:11:03.768Z,3.75
2022-11-05T22:14:06.603Z,4.00
2022-11-05T22:17:10.252Z,4.30
2022-11-05T22:20:13.011Z,4.10
2022-11-05T22:23:15.689Z,3.67
2022-11-05T22:26:18.950Z,4.37
2022-11-05T22:32:25.327Z,4.25
2022-11-05T22:35:29.022Z,4.45
2022-11-05T22:38:31.850Z,4.62
2022-11-05T22:41:34.710Z,4.47
2022-11-05T22:44:37.584Z,4.37
2022-11-05T22:47:43.571Z,5.03
2022-11-05T22:50:46.328Z,4.62
2022-11-05T22:53:49.631Z,4.85
2022-11-05T22:59:56.540Z,4.50
2022-11-05T23:02:59.420Z,4.37
2022-11-05T23:06:05.546Z,4.35
2022-11-05T23:09:35.128Z,4.30
2022-11-05T23:12:37.978Z,7.30
2022-11-05T23:15:59.231Z,9.20
2022-11-05T23:19:20.539Z,5.45
2022-11-05T23:22:49.346Z,5.15
2022-11-05T23:25:56.744Z,4.28
2022-11-05T23:28:59.485Z,3.55
2022-11-05T23:32:20.918Z,4.78
2022-11-05T23:35:42.227Z,4.87
2022-11-05T23:38:45.337Z,4.97
2022-11-05T23:42:06.958Z,4.57
2022-11-05T23:45:28.871Z,5.15
2022-11-05T23:48:37.295Z,5.07
2022-11-05T23:51:40.183Z,5.50
2022-11-05T23:54:43.045Z,6.20
2022-11-05T23:57:46.414Z,5.62
